Terminal Aerodrome Forecast
Issued by NWS

Home | Current Version | Previous Version | Text Only | Print | Product List | Glossary On
Versions: 1 2 3 4 5 6 7 8 9 10 11 12 13 14 15 16 17 18 19 20 21 22 23 24 25
000
FTUS41 KBTV 040735 AAB
TAFSLK
TAF AMD
KSLK 040735Z 0408/0506 VRB03KT P6SM BKN070
      TEMPO 0408/0411 2SM BR BKN002
     FM041100 00000KT P6SM VCSH BKN060
     FM041400 23006KT 6SM SHRA BKN060
     FM042000 27008KT P6SM VCSH BKN060=

USA.gov is the U.S. government's official web portal to all federal, state and local government web resources and services.